createdAt,value
2022-08-08T04:19:27.543Z,13.70
2022-08-08T04:26:18.235Z,13.70
2022-08-08T04:28:56.486Z,13.80
2022-08-08T04:47:01.532Z,14.00
2022-08-08T05:32:04.690Z,15.00
2022-08-08T05:35:01.698Z,15.20
2022-08-08T05:38:31.814Z,15.50
2022-08-08T05:41:28.504Z,15.70
2022-08-08T05:47:25.313Z,16.00
2022-08-08T05:51:16.201Z,16.20
2022-08-08T05:54:50.261Z,16.30
2022-08-08T05:58:30.136Z,16.60
2022-08-08T06:05:43.378Z,17.00
2022-08-08T06:09:41.546Z,17.10
2022-08-08T06:12:08.398Z,17.30
2022-08-08T06:14:49.371Z,17.50
2022-08-08T06:17:51.453Z,17.70
2022-08-08T06:21:11.299Z,17.70
2022-08-08T06:24:22.851Z,17.80
2022-08-08T06:38:27.576Z,18.10
2022-08-08T06:41:22.390Z,18.40
2022-08-08T06:48:04.284Z,18.90
2022-08-08T07:14:00.539Z,19.60
2022-08-08T07:43:35.294Z,20.80
2022-08-08T07:46:30.471Z,21.10
2022-08-08T07:49:03.365Z,21.20
2022-08-08T07:51:54.318Z,21.30
2022-08-08T07:54:48.112Z,21.40
2022-08-08T07:57:36.245Z,21.80
2022-08-08T08:00:50.181Z,22.10
2022-08-08T08:04:05.410Z,22.40
2022-08-08T08:10:42.020Z,22.80
2022-08-08T08:20:59.028Z,22.80
2022-08-08T08:24:02.636Z,22.80
2022-08-08T08:27:54.718Z,23.20
2022-08-08T08:31:04.593Z,23.60
2022-08-08T08:33:36.350Z,24.10
2022-08-08T08:40:01.064Z,25.00
2022-08-08T08:42:37.898Z,25.50
2022-08-08T08:45:21.220Z,25.70
2022-08-08T08:58:41.584Z,27.10
2022-08-08T09:01:14.777Z,28.10
2022-08-08T09:03:50.676Z,28.20
2022-08-08T09:06:28.762Z,28.20
2022-08-08T09:09:47.526Z,28.40
2022-08-08T09:12:20.406Z,28.20
2022-08-08T09:14:53.818Z,28.10
2022-08-08T09:17:41.877Z,28.20
2022-08-08T09:22:01.170Z,28.80
2022-08-08T09:23:24.528Z,29.00
2022-08-08T09:26:02.144Z,28.90
2022-08-08T09:28:37.734Z,29.20
2022-08-08T09:31:15.636Z,29.90
2022-08-08T09:34:15.066Z,29.90
2022-08-08T09:36:35.841Z,30.60
2022-08-08T09:39:10.334Z,31.00
2022-08-08T09:42:21.013Z,31.30
2022-08-08T09:45:15.817Z,31.50
2022-08-08T09:48:04.778Z,31.20
2022-08-08T09:50:44.010Z,31.40
2022-08-08T09:53:31.985Z,31.00
2022-08-08T09:56:12.522Z,31.20
2022-08-08T09:59:20.019Z,31.20
2022-08-08T10:02:00.199Z,30.30
2022-08-08T10:04:42.456Z,30.90
2022-08-08T10:07:16.334Z,30.80
2022-08-08T10:10:00.581Z,30.70
2022-08-08T10:12:53.298Z,31.10
2022-08-08T10:15:25.996Z,31.80
2022-08-08T10:18:06.251Z,31.70
2022-08-08T10:20:57.368Z,32.10
2022-08-08T10:23:58.366Z,31.80
2022-08-08T10:26:58.914Z,32.00
2022-08-08T10:29:58.871Z,32.20
2022-08-08T10:32:37.485Z,31.90
2022-08-08T10:36:07.208Z,32.30
2022-08-08T10:38:05.155Z,32.20
2022-08-08T10:40:32.882Z,31.80
2022-08-08T10:43:02.876Z,31.50
2022-08-08T10:45:38.921Z,31.60
2022-08-08T10:48:11.896Z,31.90
2022-08-08T10:50:39.748Z,32.70
2022-08-08T10:53:12.900Z,32.30
2022-08-08T10:55:46.908Z,32.30
2022-08-08T10:58:15.654Z,32.70
2022-08-08T11:00:53.407Z,32.10
2022-08-08T11:04:00.688Z,32.20
2022-08-08T11:06:36.543Z,32.70
2022-08-08T11:09:19.885Z,32.20
2022-08-08T11:12:06.499Z,31.60
2022-08-08T11:14:59.896Z,31.30
2022-08-08T11:18:00.584Z,31.80
2022-08-08T11:20:28.360Z,32.30
2022-08-08T11:23:05.258Z,32.20
2022-08-08T11:25:52.780Z,32.20
2022-08-08T11:28:30.476Z,31.90
2022-08-08T11:31:00.613Z,32.20
2022-08-08T11:33:51.850Z,32.80
2022-08-08T11:36:16.135Z,32.30
2022-08-08T11:38:54.808Z,31.20
2022-08-08T11:41:24.508Z,31.20
2022-08-08T11:43:53.713Z,30.80
2022-08-08T11:46:24.483Z,30.60
2022-08-08T11:48:52.815Z,31.20
2022-08-08T11:51:30.848Z,31.60
2022-08-08T11:54:31.567Z,31.80
2022-08-08T11:57:13.872Z,30.80
2022-08-08T12:00:02.260Z,31.30
2022-08-08T12:02:34.154Z,31.60
2022-08-08T12:05:02.585Z,32.90
2022-08-08T12:07:29.450Z,32.20
2022-08-08T12:10:09.735Z,32.40
2022-08-08T12:12:48.008Z,32.90
2022-08-08T12:15:27.797Z,33.40
2022-08-08T12:17:55.203Z,32.60
2022-08-08T12:20:23.284Z,32.30
2022-08-08T12:22:53.816Z,32.70
2022-08-08T12:25:30.114Z,33.30
2022-08-08T12:28:16.492Z,33.80
2022-08-08T12:30:49.907Z,34.40
2022-08-08T12:33:20.940Z,33.70
2022-08-08T12:35:52.184Z,33.50
2022-08-08T12:38:20.259Z,33.40
2022-08-08T12:41:00.088Z,33.80
2022-08-08T12:43:46.454Z,33.50
2022-08-08T12:46:25.406Z,33.90
2022-08-08T12:51:58.516Z,33.80
2022-08-08T12:54:38.112Z,33.80
2022-08-08T12:57:17.943Z,34.10
2022-08-08T13:00:04.785Z,34.30
2022-08-08T13:02:42.020Z,34.00
2022-08-08T13:05:26.827Z,33.50
2022-08-08T13:08:16.787Z,33.60
2022-08-08T13:10:56.502Z,33.40
2022-08-08T13:13:34.675Z,33.30
2022-08-08T13:16:25.461Z,34.30
2022-08-08T13:19:05.478Z,33.90
2022-08-08T13:21:55.516Z,34.20
2022-08-08T13:24:42.549Z,34.20
2022-08-08T13:27:18.072Z,33.60
2022-08-08T13:29:56.965Z,33.90
2022-08-08T13:32:26.575Z,34.00
2022-08-08T13:34:55.677Z,33.70
2022-08-08T13:37:51.905Z,33.40
2022-08-08T13:40:11.938Z,33.30
2022-08-08T13:42:45.281Z,33.10
2022-08-08T13:45:13.189Z,33.60
2022-08-08T13:47:55.839Z,34.20
2022-08-08T13:50:39.877Z,34.70
2022-08-08T13:53:24.863Z,34.30
2022-08-08T13:56:12.380Z,34.60
2022-08-08T13:58:56.022Z,33.10
2022-08-08T14:01:32.951Z,32.90
2022-08-08T14:04:21.156Z,33.20
2022-08-08T14:06:48.692Z,33.40
2022-08-08T14:09:24.669Z,33.30
2022-08-08T14:11:59.966Z,33.60
2022-08-08T14:14:44.172Z,33.80
2022-08-08T14:17:22.455Z,33.80
2022-08-08T14:20:07.138Z,34.20
2022-08-08T14:22:43.064Z,33.70
2022-08-08T14:25:15.349Z,33.70
2022-08-08T14:27:59.706Z,33.80
2022-08-08T14:30:34.576Z,33.80
2022-08-08T14:33:02.373Z,33.60
2022-08-08T14:35:49.649Z,33.00
2022-08-08T14:39:15.083Z,32.70
2022-08-08T14:41:54.185Z,32.60
2022-08-08T14:44:35.085Z,32.30
2022-08-08T14:47:16.728Z,32.30
2022-08-08T14:50:11.489Z,31.90
2022-08-08T14:52:48.197Z,31.30
2022-08-08T14:55:35.229Z,30.80
2022-08-08T14:58:16.600Z,30.60
2022-08-08T15:13:15.622Z,27.80
2022-08-08T15:20:14.232Z,27.40
2022-08-08T16:28:35.969Z,24.70
2022-08-08T17:14:27.387Z,23.70
2022-08-08T17:25:52.108Z,23.50
2022-08-08T18:22:50.130Z,22.30
2022-08-08T19:34:30.432Z,20.30
2022-08-08T20:11:22.689Z,19.60
2022-08-08T20:44:37.545Z,19.50
2022-08-08T20:47:36.059Z,19.50
2022-08-08T21:04:29.524Z,19.30
2022-08-08T22:32:49.414Z,17.60
2022-08-08T23:06:47.648Z,16.60
2022-08-08T23:25:05.356Z,16.40
2022-08-08T23:27:47.913Z,16.40
2022-08-08T23:30:22.599Z,16.40
2022-08-08T23:32:59.373Z,16.40
2022-08-08T23:36:12.281Z,16.30
2022-08-08T23:49:07.546Z,16.10
2022-08-08T23:58:49.119Z,16.00
